Time;durP1;ratioP1;P1;durP2;ratioP2;P2;SDS_P1;SDS_P2;PMS_P1;PMS_P2;Temp;Humidity;BMP_temperature;BMP_pressure;BME280_temperature;BME280_humidity;BME280_pressure;Samples;Min_cycle;Max_cycle;Signal;HPM_P1;HPM_P2
2023/01/26 00:01:59;;;;;;;9.45;5.28;;;;;;;;;;8314633;28;20033;-63
2023/01/26 00:06:03;;;;;;;12.40;5.00;;;;;;;;;;8321360;28;20025;-63
2023/01/26 00:10:03;;;;;;;8.88;5.10;;;;;;;;;;8322140;28;20037;-63
2023/01/26 00:14:04;;;;;;;27.85;5.63;;;;;;;;;;8323607;28;20033;-63
2023/01/26 00:18:04;;;;;;;9.60;5.25;;;;;;;;;;8321424;28;20582;-63
2023/01/26 00:22:04;;;;;;;9.20;5.43;;;;;;;;;;8321274;28;20029;-63
2023/01/26 00:26:05;;;;;;;10.07;5.65;;;;;;;;;;8321660;28;20025;-63
2023/01/26 00:30:05;;;;;;;18.90;6.07;;;;;;;;;;8321339;28;20027;-63
2023/01/26 00:34:05;;;;;;;11.05;6.00;;;;;;;;;;8321241;28;20534;-63
2023/01/26 00:38:06;;;;;;;8.90;5.15;;;;;;;;;;8320512;28;20029;-63
2023/01/26 00:42:08;;;;;;;11.45;5.72;;;;;;;;;;8321004;28;20295;-63
2023/01/26 00:46:08;;;;;;;8.35;5.28;;;;;;;;;;8320321;28;20055;-63
2023/01/26 00:50:09;;;;;;;7.90;4.60;;;;;;;;;;8323870;28;20033;-63
2023/01/26 00:54:09;;;;;;;9.40;4.65;;;;;;;;;;8325443;28;20029;-63
2023/01/26 00:58:09;;;;;;;20.20;4.88;;;;;;;;;;8321592;28;20040;-63
2023/01/26 01:02:09;;;;;;;7.68;4.50;;;;;;;;;;8320523;28;20037;-63
2023/01/26 01:06:09;;;;;;;6.68;4.10;;;;;;;;;;8325141;28;20479;-63
2023/01/26 01:10:10;;;;;;;7.47;4.57;;;;;;;;;;8327984;28;20535;-63
2023/01/26 01:14:11;;;;;;;10.13;4.40;;;;;;;;;;8325505;28;20087;-63
2023/01/26 01:18:11;;;;;;;6.10;3.65;;;;;;;;;;8323449;28;20037;-63
2023/01/26 01:22:12;;;;;;;11.52;5.00;;;;;;;;;;8325036;28;20043;-63
2023/01/26 01:26:12;;;;;;;8.80;4.85;;;;;;;;;;8326034;28;20032;-63
2023/01/26 01:30:12;;;;;;;10.18;4.75;;;;;;;;;;8324295;28;20086;-63
2023/01/26 01:34:12;;;;;;;10.70;5.50;;;;;;;;;;8326527;28;20053;-63
2023/01/26 01:38:13;;;;;;;7.68;4.57;;;;;;;;;;8326615;28;20044;-63
2023/01/26 01:42:13;;;;;;;12.35;4.70;;;;;;;;;;8329006;28;20222;-63
2023/01/26 01:46:16;;;;;;;9.20;5.17;;;;;;;;;;8326116;28;20405;-63
2023/01/26 01:50:17;;;;;;;10.52;5.07;;;;;;;;;;8328648;28;20278;-63
2023/01/26 01:54:20;;;;;;;16.13;5.10;;;;;;;;;;8326158;28;20544;-63
2023/01/26 01:58:21;;;;;;;29.55;5.18;;;;;;;;;;8327742;28;20029;-63
2023/01/26 02:02:21;;;;;;;10.38;4.80;;;;;;;;;;8325691;28;20036;-63
2023/01/26 02:06:25;;;;;;;11.27;5.40;;;;;;;;;;8330119;28;20064;-63
2023/01/26 02:10:26;;;;;;;19.55;5.90;;;;;;;;;;8325370;28;20449;-63
2023/01/26 02:14:27;;;;;;;10.93;5.20;;;;;;;;;;8327062;28;20116;-63
2023/01/26 02:18:27;;;;;;;12.57;5.47;;;;;;;;;;8324889;28;20041;-63
2023/01/26 02:22:33;;;;;;;21.95;5.28;;;;;;;;;;8326265;28;20040;-63
2023/01/26 02:26:34;;;;;;;10.07;5.20;;;;;;;;;;8326934;28;20102;-63
2023/01/26 02:30:34;;;;;;;13.00;5.15;;;;;;;;;;8324503;28;20033;-63
2023/01/26 02:34:34;;;;;;;182.50;9.13;;;;;;;;;;8325136;28;20029;-63
2023/01/26 02:38:41;;;;;;;36.63;5.90;;;;;;;;;;8327339;28;20017;-62
2023/01/26 02:42:43;;;;;;;22.15;5.10;;;;;;;;;;8324688;28;20200;-63
2023/01/26 02:46:43;;;;;;;37.47;4.63;;;;;;;;;;8323722;28;20048;-63
2023/01/26 02:50:43;;;;;;;106.45;7.15;;;;;;;;;;8325893;28;20021;-63
2023/01/26 02:59:02;;;;;;;100.68;6.30;;;;;;;;;;8326488;28;20054;-63
2023/01/26 03:03:06;;;;;;;36.03;3.90;;;;;;;;;;8326565;28;20072;-63
2023/01/26 03:07:06;;;;;;;43.23;4.13;;;;;;;;;;8324232;28;20497;-63
2023/01/26 03:11:07;;;;;;;17.17;4.30;;;;;;;;;;8326727;28;20028;-63
2023/01/26 03:28:21;;;;;;;11.35;3.63;;;;;;;;;;8291288;28;20175;-63
2023/01/26 03:32:21;;;;;;;35.38;5.00;;;;;;;;;;8323810;28;20605;-63
2023/01/26 03:36:21;;;;;;;5.35;3.42;;;;;;;;;;8323767;28;20136;-63
2023/01/26 03:57:39;;;;;;;4.63;3.25;;;;;;;;;;8323841;28;20059;-63
2023/01/26 04:10:24;;;;;;;3.72;2.88;;;;;;;;;;8324568;28;20490;-63
2023/01/26 04:23:02;;;;;;;4.60;3.17;;;;;;;;;;8320970;28;20054;-63
2023/01/26 04:27:02;;;;;;;3.75;2.80;;;;;;;;;;8322375;28;20147;-63
2023/01/26 04:31:03;;;;;;;4.97;2.85;;;;;;;;;;8320669;28;20131;-63
2023/01/26 04:35:04;;;;;;;3.53;2.83;;;;;;;;;;8321839;28;20028;-63
2023/01/26 04:39:04;;;;;;;3.15;2.85;;;;;;;;;;8320960;28;20059;-63
2023/01/26 04:43:04;;;;;;;4.32;2.70;;;;;;;;;;8324076;28;20017;-63
2023/01/26 04:47:04;;;;;;;3.38;2.88;;;;;;;;;;8321514;28;20529;-63
2023/01/26 04:51:06;;;;;;;3.83;2.80;;;;;;;;;;8324504;28;20111;-63
2023/01/26 04:55:06;;;;;;;3.08;2.75;;;;;;;;;;8323227;28;20141;-63
2023/01/26 04:59:07;;;;;;;4.47;2.85;;;;;;;;;;8321733;28;20094;-63
2023/01/26 05:03:07;;;;;;;3.58;2.70;;;;;;;;;;8321818;28;20670;-63
2023/01/26 05:07:07;;;;;;;2.95;2.50;;;;;;;;;;8320199;28;20433;-63
2023/01/26 05:11:07;;;;;;;2.53;2.15;;;;;;;;;;8321162;28;20017;-63
2023/01/26 05:15:07;;;;;;;1.77;1.67;;;;;;;;;;8320085;28;20029;-63
2023/01/26 05:19:08;;;;;;;2.80;2.30;;;;;;;;;;8323324;28;20059;-63
2023/01/26 05:23:08;;;;;;;2.28;2.08;;;;;;;;;;8320944;28;20703;-63
2023/01/26 05:27:20;;;;;;;3.20;2.50;;;;;;;;;;8319493;28;20098;-63
2023/01/26 05:31:20;;;;;;;2.50;2.30;;;;;;;;;;8321211;28;20484;-63
2023/01/26 05:35:20;;;;;;;4.03;2.97;;;;;;;;;;8321136;28;20024;-63
2023/01/26 05:39:20;;;;;;;3.28;2.35;;;;;;;;;;8319644;28;20024;-63
2023/01/26 05:43:22;;;;;;;3.17;2.78;;;;;;;;;;8318468;28;20140;-63
2023/01/26 05:47:22;;;;;;;3.03;2.50;;;;;;;;;;8316150;28;20032;-63
2023/01/26 05:51:22;;;;;;;3.67;2.80;;;;;;;;;;8319454;28;20070;-63
2023/01/26 05:55:22;;;;;;;3.90;2.60;;;;;;;;;;8326579;28;20899;-63
2023/01/26 05:59:22;;;;;;;2.65;2.35;;;;;;;;;;8323882;28;20064;-63
2023/01/26 06:03:22;;;;;;;4.25;2.50;;;;;;;;;;8324225;28;20452;-63
2023/01/26 06:07:23;;;;;;;3.30;2.70;;;;;;;;;;8325536;28;20037;-63
2023/01/26 06:11:23;;;;;;;2.80;2.28;;;;;;;;;;8327813;28;20466;-63
2023/01/26 06:15:23;;;;;;;2.42;2.15;;;;;;;;;;8324654;28;20867;-63
2023/01/26 06:19:23;;;;;;;2.70;2.28;;;;;;;;;;8325979;28;20298;-63
2023/01/26 06:23:23;;;;;;;2.35;2.05;;;;;;;;;;8320909;28;20048;-63
2023/01/26 06:27:24;;;;;;;2.20;2.00;;;;;;;;;;8325256;28;20145;-63
2023/01/26 06:31:24;;;;;;;2.10;1.77;;;;;;;;;;8324796;28;20328;-63
2023/01/26 06:35:25;;;;;;;2.03;1.92;;;;;;;;;;8325950;28;20282;-63
2023/01/26 06:39:25;;;;;;;2.00;1.83;;;;;;;;;;8324590;28;20469;-63
2023/01/26 06:43:25;;;;;;;2.20;1.98;;;;;;;;;;8325131;28;21431;-64
2023/01/26 06:47:25;;;;;;;2.72;2.15;;;;;;;;;;8326175;28;20455;-64
2023/01/26 06:51:44;;;;;;;3.92;2.78;;;;;;;;;;8326215;28;20447;-65
2023/01/26 06:55:45;;;;;;;2.33;2.13;;;;;;;;;;8324540;28;20233;-64
2023/01/26 06:59:45;;;;;;;3.33;2.17;;;;;;;;;;8323641;28;20251;-64
2023/01/26 07:03:48;;;;;;;2.10;1.90;;;;;;;;;;8325238;28;20032;-64
2023/01/26 07:07:49;;;;;;;2.47;2.07;;;;;;;;;;8322419;28;20365;-64
2023/01/26 07:11:49;;;;;;;2.08;1.88;;;;;;;;;;8326729;28;20544;-64
2023/01/26 07:15:49;;;;;;;2.28;2.08;;;;;;;;;;8323195;28;20352;-64
2023/01/26 07:19:49;;;;;;;2.40;2.20;;;;;;;;;;8325561;28;20436;-64
2023/01/26 07:23:51;;;;;;;2.95;2.30;;;;;;;;;;8325207;28;20024;-64
2023/01/26 07:27:57;;;;;;;3.10;2.40;;;;;;;;;;8324719;28;20131;-63
2023/01/26 07:31:58;;;;;;;4.53;2.83;;;;;;;;;;8322750;28;20044;-63
2023/01/26 07:35:58;;;;;;;3.97;2.45;;;;;;;;;;8324837;28;20242;-64
2023/01/26 07:39:58;;;;;;;2.95;2.60;;;;;;;;;;8323939;28;20032;-64
2023/01/26 07:43:59;;;;;;;3.00;2.50;;;;;;;;;;8325649;28;20074;-64
2023/01/26 07:47:59;;;;;;;4.07;2.78;;;;;;;;;;8325552;28;20475;-64
2023/01/26 07:51:59;;;;;;;3.28;2.60;;;;;;;;;;8323937;28;20517;-64
2023/01/26 07:56:10;;;;;;;4.93;3.42;;;;;;;;;;8324029;28;20064;-64
2023/01/26 08:00:11;;;;;;;3.45;2.90;;;;;;;;;;8324435;28;20036;-64
2023/01/26 08:04:11;;;;;;;4.35;3.58;;;;;;;;;;8324101;28;20028;-64
2023/01/26 08:08:11;;;;;;;6.07;4.15;;;;;;;;;;8323648;28;20317;-64
2023/01/26 08:12:11;;;;;;;5.32;3.75;;;;;;;;;;8321708;28;20029;-64
2023/01/26 08:16:11;;;;;;;4.38;3.20;;;;;;;;;;8321740;28;20041;-64
2023/01/26 08:20:12;;;;;;;5.73;3.60;;;;;;;;;;8323968;28;20295;-64
2023/01/26 08:24:13;;;;;;;4.60;3.45;;;;;;;;;;8321396;28;20826;-64
2023/01/26 08:28:13;;;;;;;4.07;3.30;;;;;;;;;;8323812;28;20051;-64
2023/01/26 08:32:13;;;;;;;7.17;4.20;;;;;;;;;;8323335;28;20744;-65
2023/01/26 08:36:14;;;;;;;7.03;4.75;;;;;;;;;;8322613;28;20765;-64
2023/01/26 08:40:15;;;;;;;6.95;4.53;;;;;;;;;;8320605;28;20036;-64
2023/01/26 08:44:15;;;;;;;7.13;4.57;;;;;;;;;;8323040;28;20021;-64
2023/01/26 08:48:15;;;;;;;12.88;5.32;;;;;;;;;;8321135;28;20132;-64
2023/01/26 08:52:16;;;;;;;7.63;4.70;;;;;;;;;;8323741;28;20298;-64
2023/01/26 08:56:16;;;;;;;8.95;5.68;;;;;;;;;;8322015;28;20082;-64
2023/01/26 09:00:16;;;;;;;7.47;5.10;;;;;;;;;;8319893;28;20087;-64
2023/01/26 09:04:17;;;;;;;7.40;4.88;;;;;;;;;;8321656;28;20111;-64
2023/01/26 09:08:17;;;;;;;7.72;5.70;;;;;;;;;;8323668;28;20812;-64
2023/01/26 09:12:17;;;;;;;8.48;5.35;;;;;;;;;;8322835;28;20119;-64
2023/01/26 09:16:18;;;;;;;8.25;5.10;;;;;;;;;;8321377;28;20106;-64
2023/01/26 09:20:19;;;;;;;7.25;5.30;;;;;;;;;;8321431;28;20127;-64
2023/01/26 09:24:22;;;;;;;9.48;5.72;;;;;;;;;;8322650;28;20037;-64
2023/01/26 09:28:22;;;;;;;9.93;5.68;;;;;;;;;;8326257;28;20511;-64
2023/01/26 09:32:22;;;;;;;8.27;5.90;;;;;;;;;;8328339;28;20342;-64
2023/01/26 09:36:22;;;;;;;9.20;6.28;;;;;;;;;;8326570;28;20035;-64
2023/01/26 09:40:29;;;;;;;10.60;5.90;;;;;;;;;;8328040;28;20029;-64
2023/01/26 09:44:32;;;;;;;9.48;5.72;;;;;;;;;;8328731;28;20495;-65
2023/01/26 09:48:42;;;;;;;8.57;5.43;;;;;;;;;;8327030;28;20551;-64
2023/01/26 09:52:58;;;;;;;10.45;5.97;;;;;;;;;;8325654;28;20025;-65
2023/01/26 09:56:59;;;;;;;11.43;7.03;;;;;;;;;;8328131;28;20557;-64
2023/01/26 10:01:01;;;;;;;10.30;6.43;;;;;;;;;;8327822;28;20072;-65
2023/01/26 10:05:03;;;;;;;11.13;6.55;;;;;;;;;;8327541;28;20622;-64
2023/01/26 10:09:11;;;;;;;13.68;7.13;;;;;;;;;;8328011;28;20265;-64
2023/01/26 10:13:13;;;;;;;11.55;7.10;;;;;;;;;;8325772;28;20021;-64
2023/01/26 10:17:18;;;;;;;11.70;6.90;;;;;;;;;;8326307;28;20098;-65
2023/01/26 10:21:21;;;;;;;9.68;6.07;;;;;;;;;;8327023;28;20387;-65
2023/01/26 10:25:28;;;;;;;12.35;6.55;;;;;;;;;;8325863;28;20020;-64
2023/01/26 10:29:28;;;;;;;11.65;7.32;;;;;;;;;;8327459;28;20097;-64
2023/01/26 10:33:32;;;;;;;11.73;6.53;;;;;;;;;;8325344;28;20120;-65
2023/01/26 10:37:33;;;;;;;13.32;7.38;;;;;;;;;;8325341;28;20657;-64
2023/01/26 10:41:33;;;;;;;11.90;6.70;;;;;;;;;;8324633;28;20021;-64
2023/01/26 10:45:43;;;;;;;12.52;7.28;;;;;;;;;;8324700;28;20462;-65
2023/01/26 10:49:43;;;;;;;15.85;8.10;;;;;;;;;;8325506;28;20389;-64
2023/01/26 10:53:43;;;;;;;13.63;7.95;;;;;;;;;;8325249;28;20539;-64
2023/01/26 10:57:43;;;;;;;12.15;7.22;;;;;;;;;;8325346;28;20033;-64
2023/01/26 11:01:51;;;;;;;12.93;7.38;;;;;;;;;;8324796;28;20021;-64
2023/01/26 11:06:07;;;;;;;13.70;7.95;;;;;;;;;;8326093;28;20056;-65
2023/01/26 11:10:19;;;;;;;15.07;7.93;;;;;;;;;;8322160;28;20029;-64
2023/01/26 11:14:19;;;;;;;12.93;7.43;;;;;;;;;;8326246;28;20090;-64
2023/01/26 11:18:22;;;;;;;14.52;7.50;;;;;;;;;;8324812;28;20029;-64
2023/01/26 11:22:37;;;;;;;14.25;8.20;;;;;;;;;;8325360;28;20036;-64
2023/01/26 11:26:45;;;;;;;12.63;7.20;;;;;;;;;;8324700;28;20051;-64
2023/01/26 11:31:05;;;;;;;12.20;7.47;;;;;;;;;;8323155;28;20487;-64
2023/01/26 11:35:27;;;;;;;13.73;7.65;;;;;;;;;;8324897;28;20119;-65
2023/01/26 11:39:31;;;;;;;12.43;7.38;;;;;;;;;;8325091;28;20028;-64
2023/01/26 11:43:51;;;;;;;16.93;8.17;;;;;;;;;;8323574;28;20091;-64
2023/01/26 11:48:10;;;;;;;16.48;8.10;;;;;;;;;;8308612;28;20048;-65
2023/01/26 11:52:21;;;;;;;13.77;7.97;;;;;;;;;;8320819;28;20112;-64
2023/01/26 11:56:33;;;;;;;14.05;7.53;;;;;;;;;;8321246;28;20036;-64
2023/01/26 12:00:39;;;;;;;14.65;8.02;;;;;;;;;;8321456;28;20445;-64
2023/01/26 12:04:44;;;;;;;12.75;7.35;;;;;;;;;;8318198;28;20024;-67
2023/01/26 12:08:48;;;;;;;14.63;7.78;;;;;;;;;;8322904;28;20032;-64
2023/01/26 12:12:52;;;;;;;15.25;8.27;;;;;;;;;;8323790;28;20588;-64
2023/01/26 12:16:52;;;;;;;15.02;8.05;;;;;;;;;;8321257;28;20041;-64
2023/01/26 12:20:54;;;;;;;11.30;7.35;;;;;;;;;;8321701;28;20453;-64
2023/01/26 12:25:09;;;;;;;15.38;8.27;;;;;;;;;;8320830;28;20078;-65
2023/01/26 12:29:39;;;;;;;13.27;7.40;;;;;;;;;;8321378;28;20023;-64
2023/01/26 12:33:39;;;;;;;18.13;7.95;;;;;;;;;;8284364;28;20502;-65
2023/01/26 12:37:50;;;;;;;12.25;7.15;;;;;;;;;;8289183;28;20405;-64
2023/01/26 12:42:00;;;;;;;13.10;6.70;;;;;;;;;;8291138;28;20112;-64
2023/01/26 12:46:01;;;;;;;12.88;6.93;;;;;;;;;;8302140;28;20037;-65
2023/01/26 12:50:20;;;;;;;14.48;7.40;;;;;;;;;;8328419;28;20409;-64
2023/01/26 12:54:25;;;;;;;11.52;7.25;;;;;;;;;;8328317;28;20608;-65
2023/01/26 12:58:32;;;;;;;12.25;7.93;;;;;;;;;;8327076;28;20025;-64
2023/01/26 13:02:34;;;;;;;13.90;7.80;;;;;;;;;;8325499;28;20537;-65
2023/01/26 13:06:34;;;;;;;14.48;8.05;;;;;;;;;;8326575;28;20085;-64
2023/01/26 13:10:43;;;;;;;12.57;7.22;;;;;;;;;;8328099;28;20025;-65
2023/01/26 13:14:44;;;;;;;16.48;7.97;;;;;;;;;;8320992;28;20111;-64
2023/01/26 13:18:57;;;;;;;14.02;7.75;;;;;;;;;;8314915;28;21637;-65
2023/01/26 13:22:57;;;;;;;14.52;7.70;;;;;;;;;;8318674;28;20025;-64
2023/01/26 13:26:58;;;;;;;16.98;8.27;;;;;;;;;;8319115;28;20021;-64
2023/01/26 13:31:03;;;;;;;14.07;8.20;;;;;;;;;;8319785;28;20222;-64
2023/01/26 13:35:08;;;;;;;13.45;7.43;;;;;;;;;;8319778;28;20542;-65
2023/01/26 13:39:14;;;;;;;12.27;6.20;;;;;;;;;;8318559;28;20029;-64
2023/01/26 13:43:23;;;;;;;10.85;6.10;;;;;;;;;;8317197;28;20021;-62
2023/01/26 13:47:27;;;;;;;6.68;4.38;;;;;;;;;;8315944;28;20029;-62
2023/01/26 13:51:31;;;;;;;7.35;4.10;;;;;;;;;;8318169;28;20032;-61
2023/01/26 13:55:32;;;;;;;8.18;4.38;;;;;;;;;;8315266;28;20033;-62
2023/01/26 13:59:32;;;;;;;7.53;4.70;;;;;;;;;;8316574;28;20033;-62
2023/01/26 14:03:32;;;;;;;8.13;4.43;;;;;;;;;;8317658;28;20805;-62
2023/01/26 14:07:40;;;;;;;7.90;4.37;;;;;;;;;;8325145;28;20029;-62
2023/01/26 14:11:41;;;;;;;7.97;4.40;;;;;;;;;;8320334;28;20294;-62
2023/01/26 14:15:41;;;;;;;8.48;4.97;;;;;;;;;;8321186;28;20037;-62
2023/01/26 14:19:41;;;;;;;7.80;5.03;;;;;;;;;;8322215;28;20134;-62
2023/01/26 14:23:41;;;;;;;5.97;4.13;;;;;;;;;;8323305;28;20021;-62
2023/01/26 14:27:42;;;;;;;6.15;4.35;;;;;;;;;;8321150;28;20071;-62
2023/01/26 14:31:42;;;;;;;7.30;4.88;;;;;;;;;;8322162;28;20029;-62
2023/01/26 14:35:53;;;;;;;8.52;4.50;;;;;;;;;;8323241;28;20893;-62
2023/01/26 14:40:12;;;;;;;5.90;3.65;;;;;;;;;;8320604;28;20040;-62
2023/01/26 14:44:12;;;;;;;5.97;3.75;;;;;;;;;;8322485;28;20361;-62
2023/01/26 14:48:15;;;;;;;8.00;4.32;;;;;;;;;;8320782;28;20143;-62
2023/01/26 14:52:26;;;;;;;7.15;4.28;;;;;;;;;;8318738;28;20032;-62
2023/01/26 14:56:33;;;;;;;7.20;4.18;;;;;;;;;;8322204;28;20136;-63
2023/01/26 15:00:34;;;;;;;8.02;4.90;;;;;;;;;;8318708;28;20044;-62
2023/01/26 15:04:37;;;;;;;7.15;4.75;;;;;;;;;;8322585;28;20055;-62
2023/01/26 15:08:37;;;;;;;8.57;4.65;;;;;;;;;;8320856;28;20017;-62
2023/01/26 15:12:38;;;;;;;6.90;4.80;;;;;;;;;;8324254;28;20048;-62
2023/01/26 15:16:50;;;;;;;7.43;4.85;;;;;;;;;;8328037;28;20033;-62
2023/01/26 15:20:50;;;;;;;11.20;6.07;;;;;;;;;;8328344;28;20740;-62
2023/01/26 15:24:58;;;;;;;13.75;5.88;;;;;;;;;;8327527;28;20029;-61
2023/01/26 15:28:59;;;;;;;11.85;6.22;;;;;;;;;;8330069;28;20195;-62
2023/01/26 15:33:00;;;;;;;11.23;5.95;;;;;;;;;;8328940;28;20695;-62
2023/01/26 15:37:01;;;;;;;10.80;6.47;;;;;;;;;;8327489;28;20064;-62
2023/01/26 15:41:02;;;;;;;9.77;6.30;;;;;;;;;;8328579;28;20044;-64
2023/01/26 15:45:03;;;;;;;12.77;6.40;;;;;;;;;;8325157;28;20023;-64
2023/01/26 15:49:03;;;;;;;11.40;6.40;;;;;;;;;;8328807;28;20032;-64
2023/01/26 15:53:04;;;;;;;14.53;6.30;;;;;;;;;;8328546;28;20037;-64
2023/01/26 15:57:04;;;;;;;10.57;6.45;;;;;;;;;;8328384;28;20282;-64
2023/01/26 16:01:05;;;;;;;11.45;6.22;;;;;;;;;;8329848;28;20072;-65
2023/01/26 16:05:05;;;;;;;12.45;6.63;;;;;;;;;;8330323;28;20283;-64
2023/01/26 16:09:05;;;;;;;11.52;6.78;;;;;;;;;;8328168;28;20571;-64
2023/01/26 16:13:12;;;;;;;12.20;6.57;;;;;;;;;;8330188;28;20084;-64
2023/01/26 16:17:14;;;;;;;11.48;6.95;;;;;;;;;;8327799;28;20044;-64
2023/01/26 16:21:19;;;;;;;13.05;6.55;;;;;;;;;;8325566;28;20032;-64
2023/01/26 16:25:24;;;;;;;13.48;6.95;;;;;;;;;;8328596;28;20126;-64
2023/01/26 16:29:25;;;;;;;13.85;7.47;;;;;;;;;;8324731;28;20033;-64
2023/01/26 16:33:25;;;;;;;9.85;6.43;;;;;;;;;;8321911;28;20049;-64
2023/01/26 16:37:25;;;;;;;13.35;7.30;;;;;;;;;;8321805;28;20536;-64
2023/01/26 16:41:27;;;;;;;13.32;7.18;;;;;;;;;;8321904;28;20025;-64
2023/01/26 16:45:27;;;;;;;12.95;7.47;;;;;;;;;;8320140;28;20037;-64
2023/01/26 16:49:28;;;;;;;13.57;7.25;;;;;;;;;;8322247;28;20032;-64
2023/01/26 16:53:31;;;;;;;11.70;6.32;;;;;;;;;;8322948;28;20016;-64
2023/01/26 16:57:32;;;;;;;14.37;7.33;;;;;;;;;;8321822;28;20033;-64
2023/01/26 17:01:34;;;;;;;12.52;7.35;;;;;;;;;;8321626;28;20075;-64
2023/01/26 17:05:34;;;;;;;14.13;7.55;;;;;;;;;;8323225;28;20134;-64
2023/01/26 17:09:34;;;;;;;14.85;8.35;;;;;;;;;;8322166;28;20021;-64
2023/01/26 17:13:34;;;;;;;13.45;7.25;;;;;;;;;;8323187;28;20784;-64
2023/01/26 17:17:34;;;;;;;16.02;8.30;;;;;;;;;;8322678;28;20037;-64
2023/01/26 17:21:35;;;;;;;15.20;8.10;;;;;;;;;;8322592;28;20475;-64
2023/01/26 17:25:35;;;;;;;15.70;7.63;;;;;;;;;;8322922;28;20393;-64
2023/01/26 17:29:35;;;;;;;14.30;7.63;;;;;;;;;;8322867;28;20275;-64
2023/01/26 17:33:36;;;;;;;12.70;7.47;;;;;;;;;;8324248;28;20508;-64
2023/01/26 17:37:36;;;;;;;12.30;7.65;;;;;;;;;;8324210;28;20130;-64
2023/01/26 17:41:37;;;;;;;12.45;7.93;;;;;;;;;;8321380;28;20052;-64
2023/01/26 17:45:37;;;;;;;15.20;8.25;;;;;;;;;;8320886;28;20115;-64
2023/01/26 17:49:37;;;;;;;10.35;7.13;;;;;;;;;;8326630;28;20501;-64
2023/01/26 17:53:38;;;;;;;12.77;7.85;;;;;;;;;;8329755;28;20500;-64
2023/01/26 17:57:38;;;;;;;16.05;7.60;;;;;;;;;;8327779;28;20029;-64
2023/01/26 18:01:38;;;;;;;13.90;7.45;;;;;;;;;;8327316;28;20496;-64
2023/01/26 18:05:39;;;;;;;11.35;6.95;;;;;;;;;;8328147;28;20021;-64
2023/01/26 18:09:39;;;;;;;11.88;7.60;;;;;;;;;;8329178;28;20078;-64
2023/01/26 18:13:39;;;;;;;13.98;7.72;;;;;;;;;;8324778;28;20072;-63
2023/01/26 18:17:39;;;;;;;24.67;8.98;;;;;;;;;;8323733;28;20286;-63
2023/01/26 18:21:40;;;;;;;17.90;9.80;;;;;;;;;;8327015;28;20029;-63
2023/01/26 18:25:40;;;;;;;19.92;9.15;;;;;;;;;;8327071;28;20267;-63
2023/01/26 18:29:40;;;;;;;13.02;8.45;;;;;;;;;;8325815;28;20275;-63
2023/01/26 18:33:40;;;;;;;14.27;8.82;;;;;;;;;;8325590;28;20051;-64
2023/01/26 18:37:41;;;;;;;13.32;7.50;;;;;;;;;;8326070;28;20409;-63
2023/01/26 18:41:42;;;;;;;11.75;7.30;;;;;;;;;;8325386;28;20032;-63
2023/01/26 18:45:42;;;;;;;13.30;7.95;;;;;;;;;;8319533;28;20116;-64
2023/01/26 18:49:42;;;;;;;12.05;7.53;;;;;;;;;;8320389;28;20059;-64
2023/01/26 18:53:42;;;;;;;11.27;6.95;;;;;;;;;;8321815;28;20162;-63
2023/01/26 18:57:42;;;;;;;12.15;6.95;;;;;;;;;;8321886;28;20563;-63
2023/01/26 19:01:43;;;;;;;11.30;6.60;;;;;;;;;;8320385;28;20131;-63
2023/01/26 19:05:43;;;;;;;11.07;6.53;;;;;;;;;;8322604;28;20036;-63
2023/01/26 19:09:43;;;;;;;9.73;6.03;;;;;;;;;;8323337;28;20734;-64
2023/01/26 19:13:45;;;;;;;10.55;6.53;;;;;;;;;;8323342;28;20023;-63
2023/01/26 19:17:45;;;;;;;9.38;6.15;;;;;;;;;;8320955;28;20440;-63
2023/01/26 19:21:45;;;;;;;11.15;7.10;;;;;;;;;;8322714;28;20090;-63
2023/01/26 19:25:45;;;;;;;10.50;6.95;;;;;;;;;;8320586;28;20486;-63
2023/01/26 19:29:46;;;;;;;9.68;5.85;;;;;;;;;;8319338;28;20108;-63
2023/01/26 19:33:50;;;;;;;13.68;7.78;;;;;;;;;;8319192;28;20316;-64
2023/01/26 19:37:50;;;;;;;;;;;;;;;;;;8321325;28;20415;-64
2023/01/26 19:41:51;;;;;;;9.88;6.10;;;;;;;;;;8319592;28;20268;-63
2023/01/26 19:45:52;;;;;;;10.68;6.63;;;;;;;;;;8319012;28;20444;-63
2023/01/26 19:49:52;;;;;;;11.15;6.55;;;;;;;;;;8317834;28;20048;-63
2023/01/26 19:53:53;;;;;;;11.95;6.95;;;;;;;;;;8323751;28;20033;-64
2023/01/26 19:57:53;;;;;;;11.73;6.72;;;;;;;;;;8319337;28;20060;-63
2023/01/26 20:01:54;;;;;;;11.55;6.38;;;;;;;;;;8319910;28;20061;-61
2023/01/26 20:05:54;;;;;;;13.65;7.63;;;;;;;;;;8319719;28;20050;-61
2023/01/26 20:09:55;;;;;;;10.63;6.78;;;;;;;;;;8317355;28;20408;-61
2023/01/26 20:13:59;;;;;;;10.77;6.72;;;;;;;;;;8316874;28;20108;-61
2023/01/26 20:17:59;;;;;;;10.65;6.80;;;;;;;;;;8317822;28;20033;-61
2023/01/26 20:22:01;;;;;;;11.40;7.00;;;;;;;;;;8323604;28;20053;-61
2023/01/26 20:26:05;;;;;;;10.55;6.68;;;;;;;;;;8325174;28;20128;-63
2023/01/26 20:30:05;;;;;;;;;;;;;;;;;;8318319;28;20072;-64
2023/01/26 20:34:05;;;;;;;10.38;6.45;;;;;;;;;;8325694;28;19979;-64
2023/01/26 20:38:06;;;;;;;12.60;6.57;;;;;;;;;;8324201;28;20028;-64
2023/01/26 20:42:06;;;;;;;11.48;7.53;;;;;;;;;;8323819;28;20028;-64
2023/01/26 20:46:09;;;;;;;11.13;6.80;;;;;;;;;;8325656;28;20076;-64
2023/01/26 20:50:10;;;;;;;11.38;7.07;;;;;;;;;;8324943;28;20021;-64
2023/01/26 20:54:11;;;;;;;11.63;6.97;;;;;;;;;;8326659;28;20037;-64
2023/01/26 20:58:12;;;;;;;12.05;7.10;;;;;;;;;;8324647;28;20029;-63
2023/01/26 21:02:13;;;;;;;13.60;8.27;;;;;;;;;;8323725;28;20127;-64
2023/01/26 21:06:14;;;;;;;13.15;7.70;;;;;;;;;;8325969;28;20028;-64
2023/01/26 21:10:14;;;;;;;11.60;7.00;;;;;;;;;;8323598;28;20037;-64
2023/01/26 21:14:15;;;;;;;11.15;6.43;;;;;;;;;;8325086;28;20025;-64
2023/01/26 21:18:15;;;;;;;10.88;6.68;;;;;;;;;;8326303;28;20033;-64
2023/01/26 21:22:15;;;;;;;11.90;6.43;;;;;;;;;;8325768;28;20035;-63
2023/01/26 21:26:17;;;;;;;9.52;6.10;;;;;;;;;;8326303;28;20099;-64
2023/01/26 21:30:17;;;;;;;9.05;6.00;;;;;;;;;;8332322;28;20040;-64
2023/01/26 21:34:17;;;;;;;9.25;6.07;;;;;;;;;;8330522;28;20057;-64
2023/01/26 21:38:18;;;;;;;7.63;5.53;;;;;;;;;;8331375;28;20059;-64
2023/01/26 21:42:18;;;;;;;9.18;5.88;;;;;;;;;;8332900;28;20025;-64
2023/01/26 21:46:18;;;;;;;7.40;5.22;;;;;;;;;;8331529;28;20094;-64
2023/01/26 21:52:56;;;;;;;8.43;5.50;;;;;;;;;;8335577;28;20479;-64
2023/01/26 21:54:38;;;;;;;8.55;5.55;;;;;;;;;;8335632;28;20475;-64
2023/01/26 22:02:59;;;;;;;7.93;5.50;;;;;;;;;;8336433;28;20458;-65
2023/01/26 22:06:59;;;;;;;8.25;5.53;;;;;;;;;;8334360;28;20028;-64
2023/01/26 22:10:59;;;;;;;7.05;4.80;;;;;;;;;;8332229;28;20025;-64
2023/01/26 22:15:00;;;;;;;6.87;4.40;;;;;;;;;;8333537;28;20687;-64
2023/01/26 22:19:00;;;;;;;7.13;4.90;;;;;;;;;;8332709;28;20871;-64
2023/01/26 22:23:00;;;;;;;7.18;4.75;;;;;;;;;;8334121;28;21038;-64
2023/01/26 22:27:00;;;;;;;8.20;4.57;;;;;;;;;;8333334;28;20017;-64
2023/01/26 22:31:03;;;;;;;7.00;5.05;;;;;;;;;;8330762;28;20036;-65
2023/01/26 22:35:03;;;;;;;6.82;4.45;;;;;;;;;;8329998;28;20021;-64
2023/01/26 22:39:04;;;;;;;6.97;4.65;;;;;;;;;;8331936;28;20023;-64
2023/01/26 22:43:04;;;;;;;8.55;4.72;;;;;;;;;;8332901;28;20024;-64
2023/01/26 22:47:04;;;;;;;6.10;4.45;;;;;;;;;;8332830;28;20116;-64
2023/01/26 22:51:15;;;;;;;7.22;4.70;;;;;;;;;;8332060;28;20563;-64
2023/01/26 22:55:16;;;;;;;6.78;4.68;;;;;;;;;;8331414;28;20032;-64
2023/01/26 22:59:16;;;;;;;6.45;4.55;;;;;;;;;;8333227;28;20028;-64
2023/01/26 23:03:16;;;;;;;5.75;3.75;;;;;;;;;;8331490;28;20094;-65
2023/01/26 23:07:16;;;;;;;6.13;4.28;;;;;;;;;;8330651;28;20047;-65
2023/01/26 23:11:18;;;;;;;5.40;4.22;;;;;;;;;;8333857;28;20060;-64
2023/01/26 23:15:18;;;;;;;6.03;3.55;;;;;;;;;;8321301;28;20021;-65
2023/01/26 23:19:18;;;;;;;4.88;3.72;;;;;;;;;;8330410;28;20606;-64
2023/01/26 23:23:21;;;;;;;4.13;3.42;;;;;;;;;;8334833;28;20082;-64
2023/01/26 23:27:21;;;;;;;5.35;3.75;;;;;;;;;;8330155;28;20147;-64
2023/01/26 23:31:21;;;;;;;5.97;3.70;;;;;;;;;;8331688;28;20036;-64
2023/01/26 23:35:22;;;;;;;5.10;3.50;;;;;;;;;;8330764;28;20278;-65
2023/01/26 23:39:22;;;;;;;5.90;3.67;;;;;;;;;;8330836;28;20029;-64
2023/01/26 23:43:22;;;;;;;3.75;3.40;;;;;;;;;;8332454;28;20037;-64
2023/01/26 23:47:22;;;;;;;3.83;3.08;;;;;;;;;;8331092;28;21049;-64
2023/01/26 23:51:22;;;;;;;4.03;3.47;;;;;;;;;;8330714;28;20024;-64
2023/01/26 23:55:23;;;;;;;4.70;3.67;;;;;;;;;;8332999;28;20128;-64
2023/01/26 23:59:23;;;;;;;4.43;3.38;;;;;;;;;;8329436;28;20028;-64
